EST,Max TemperatureF,Mean TemperatureF,Min TemperatureF,Max Dew PointF,MeanDew PointF,Min DewpointF,Max Humidity, Mean Humidity, Min Humidity, Max Sea Level PressureIn, Mean Sea Level PressureIn, Min Sea Level PressureIn, Max VisibilityMiles, Mean VisibilityMiles, Min VisibilityMiles, Max Wind SpeedMPH, Mean Wind SpeedMPH, Max Gust SpeedMPH,PrecipitationIn, CloudCover, Events, WindDirDegrees
2013-1-1,75,63,51,57,54,49,92,74,48,30.23,30.13,30.06,10,9,5,16,4,22,0.00,2,,187
2013-1-2,79,66,54,63,59,52,93,77,52,30.08,30.04,29.99,10,10,5,14,3,21,0.00,4,,234
2013-1-3,69,63,57,63,59,53,100,90,73,30.20,30.10,30.05,10,5,0,14,2,17,0.05,7,Fog-Rain,12
2013-1-4,59,56,53,58,55,52,100,94,88,30.30,30.24,30.18,10,5,1,13,9,20,0.23,8,Rain,357
2013-1-5,73,62,52,58,53,49,94,79,57,30.32,30.27,30.21,10,10,6,13,9,,0.01,7,,16
2013-1-6,79,69,59,65,59,55,94,81,56,30.21,30.15,30.07,10,10,7,12,4,,0.00,6,Rain,35
2013-1-7,70,62,53,61,55,48,94,83,57,30.24,30.19,30.15,10,10,5,14,8,,0.02,6,Rain,11
2013-1-8,80,72,63,68,65,62,97,81,58,30.25,30.20,30.16,10,10,6,9,6,,0.02,7,,44
2013-1-9,78,71,64,72,66,63,100,92,69,30.33,30.27,30.22,10,5,0,10,3,,0.29,6,Fog-Rain,74
2013-1-10,81,72,62,67,63,60,100,86,49,30.33,30.30,30.25,10,5,0,15,4,,0.01,3,Fog,93
2013-1-11,81,70,59,67,61,54,100,87,39,30.28,30.23,30.18,10,5,0,13,3,,0.01,3,Fog,129
2013-1-12,81,69,57,67,61,57,100,87,47,30.22,30.17,30.11,10,4,0,10,3,,0.01,1,Fog,130
2013-1-13,81,69,57,64,60,57,100,82,45,30.18,30.12,30.09,10,7,0,12,2,,0.00,0,Fog,150
2013-1-14,80,70,61,64,61,59,97,78,50,30.20,30.17,30.13,10,10,7,8,4,,0.01,2,,142
2013-1-15,79,70,62,65,63,61,100,82,54,30.17,30.12,30.07,10,9,2,9,4,,0.00,3,,145
2013-1-16,81,70,60,65,60,55,96,72,42,30.12,30.06,30.02,10,10,10,9,3,,0.00,2,,174
2013-1-17,78,64,51,66,56,42,93,76,58,30.12,30.03,29.96,10,10,9,26,10,37,0.00,4,,246
2013-1-18,66,54,42,57,46,33,90,70,59,30.30,30.25,30.12,10,9,2,25,13,33,0.04,7,Rain,6
2013-1-19,73,64,55,57,55,51,87,74,55,30.31,30.23,30.17,10,10,10,17,8,25,0.00,7,,16
2013-1-20,72,64,57,61,56,50,93,79,54,30.20,30.14,30.09,10,9,5,13,7,,0.02,6,,14
2013-1-21,73,66,60,56,54,52,83,68,53,30.12,30.08,30.01,10,10,10,8,3,,0.00,6,Rain,358
2013-1-22,62,55,46,48,40,32,71,55,36,30.30,30.21,30.09,10,10,10,15,8,,0.00,0,,10
2013-1-23,66,56,46,41,36,31,79,52,26,30.38,30.33,30.29,10,10,10,10,5,,0.00,0,,360
2013-1-24,73,58,43,49,43,39,86,61,34,30.34,30.29,30.23,10,10,10,10,4,16,0.00,1,,299
2013-1-25,73,60,48,53,48,42,100,72,34,30.32,30.26,30.19,10,7,2,7,2,,0.00,1,,321
2013-1-26,75,60,46,54,50,44,93,69,43,30.29,30.23,30.18,10,10,6,8,2,,0.00,0,,299
2013-1-27,75,63,51,60,56,50,100,80,48,30.33,30.30,30.25,10,7,0,15,3,,0.00,2,Fog,57
2013-1-28,78,70,61,63,60,58,90,75,52,30.36,30.31,30.26,10,10,10,15,8,22,0.00,5,,107
2013-1-29,82,72,62,65,63,59,100,79,47,30.28,30.20,30.13,10,9,1,15,7,,0.00,3,,131
2013-1-30,82,72,62,64,61,58,94,72,44,30.13,30.00,29.89,10,10,7,21,8,29,0.00,1,,171
2013-1-31,71,60,43,63,40,21,94,58,20,30.24,30.10,29.90,10,10,7,26,13,36,0.03,3,Rain,307